Time;durP1;ratioP1;P1;durP2;ratioP2;P2;SDS_P1;SDS_P2;PMS_P1;PMS_P2;Temp;Humidity;BMP_temperature;BMP_pressure;BME280_temperature;BME280_humidity;BME280_pressure;Samples;Min_cycle;Max_cycle;Signal;HPM_P1;HPM_P2
2021/10/14 00:00:18;;;;;;;16.40;10.40;;;4.80;99.90;;;;;;5079663;28;20219;-49
2021/10/14 00:02:45;;;;;;;18.65;11.13;;;4.80;99.90;;;;;;5079529;28;20266;-51
2021/10/14 00:05:12;;;;;;;18.30;10.73;;;4.90;99.90;;;;;;5079434;28;20219;-47
2021/10/14 00:07:39;;;;;;;14.90;10.43;;;4.90;99.90;;;;;;5079371;28;20281;-43
2021/10/14 00:10:07;;;;;;;15.02;10.95;;;5.00;99.90;;;;;;5079452;28;20250;-45
2021/10/14 00:12:34;;;;;;;14.50;11.10;;;5.10;99.90;;;;;;5078986;28;20227;-47
2021/10/14 00:15:03;;;;;;;16.67;11.63;;;5.10;99.90;;;;;;5079132;28;20196;-48
2021/10/14 00:17:30;;;;;;;15.80;10.27;;;5.20;99.90;;;;;;5079114;28;20193;-46
2021/10/14 00:19:57;;;;;;;17.15;10.70;;;5.20;99.90;;;;;;5077880;28;20554;-48
2021/10/14 00:22:25;;;;;;;19.60;11.18;;;5.20;99.90;;;;;;5075528;28;20221;-45
2021/10/14 00:24:52;;;;;;;27.52;12.60;;;5.00;99.90;;;;;;5072661;28;20202;-50
2021/10/14 00:27:19;;;;;;;14.68;11.10;;;5.00;99.90;;;;;;5073231;28;20225;-49
2021/10/14 00:29:46;;;;;;;17.20;11.00;;;5.00;99.90;;;;;;5071481;28;20242;-50
2021/10/14 00:32:14;;;;;;;16.83;12.30;;;4.90;99.90;;;;;;5082717;28;20281;-49
2021/10/14 00:34:41;;;;;;;16.48;10.73;;;4.90;99.90;;;;;;5082811;28;20223;-51
2021/10/14 00:37:08;;;;;;;15.40;11.25;;;4.90;99.90;;;;;;5081569;28;20266;-46
2021/10/14 00:39:35;;;;;;;17.30;10.88;;;5.00;99.90;;;;;;5083216;28;20201;-49
2021/10/14 00:42:02;;;;;;;19.73;11.15;;;5.10;99.90;;;;;;5079329;28;20600;-49
2021/10/14 00:44:50;;;;;;;15.77;11.50;;;5.10;99.90;;;;;;5082960;28;20257;-47
2021/10/14 00:47:25;;;;;;;12.45;9.60;;;5.10;99.90;;;;;;5082502;28;20197;-47
2021/10/14 00:49:53;;;;;;;15.73;11.02;;;5.20;99.90;;;;;;5082823;28;20197;-51
2021/10/14 00:52:22;;;;;;;24.17;10.00;;;5.30;99.90;;;;;;5082968;28;20413;-53
2021/10/14 00:54:50;;;;;;;15.00;11.00;;;5.40;99.90;;;;;;5082496;28;20243;-48
2021/10/14 00:57:18;;;;;;;16.20;11.18;;;5.40;99.90;;;;;;5082735;28;20242;-48
2021/10/14 00:59:46;;;;;;;14.40;9.38;;;5.50;99.90;;;;;;5082843;28;20201;-46
2021/10/14 01:02:13;;;;;;;12.70;10.27;;;5.50;99.90;;;;;;5082999;28;20274;-49
2021/10/14 01:04:40;;;;;;;14.45;9.50;;;5.50;99.90;;;;;;5075793;28;20395;-48
2021/10/14 01:07:08;;;;;;;12.52;10.48;;;5.60;99.90;;;;;;5064296;28;20199;-47
2021/10/14 01:09:35;;;;;;;15.05;9.82;;;5.60;99.90;;;;;;5082111;28;20436;-45
2021/10/14 01:12:03;;;;;;;11.65;8.50;;;5.70;99.90;;;;;;5082719;28;20558;-48
2021/10/14 01:14:32;;;;;;;16.00;9.82;;;5.70;99.90;;;;;;5079453;28;20201;-46
2021/10/14 01:17:01;;;;;;;10.68;9.57;;;5.70;99.90;;;;;;5083042;28;20207;-49
2021/10/14 01:19:29;;;;;;;10.80;8.00;;;5.80;99.90;;;;;;5082438;28;20197;-47
2021/10/14 01:21:56;;;;;;;14.55;10.35;;;5.90;99.90;;;;;;5077124;28;20241;-49
2021/10/14 01:24:23;;;;;;;15.73;9.82;;;5.90;99.90;;;;;;5082352;28;20197;-49
2021/10/14 01:26:51;;;;;;;13.80;9.55;;;5.90;99.90;;;;;;5081341;28;20194;-47
2021/10/14 01:29:18;;;;;;;16.42;11.48;;;6.00;99.90;;;;;;5085188;28;20218;-50
2021/10/14 01:31:45;;;;;;;11.93;8.65;;;6.00;99.90;;;;;;5083110;28;20240;-46
2021/10/14 01:34:15;;;;;;;15.55;10.77;;;6.10;99.90;;;;;;5082312;28;20582;-48
2021/10/14 01:36:42;;;;;;;14.27;9.70;;;6.10;99.90;;;;;;5082059;28;20198;-47
2021/10/14 01:39:09;;;;;;;14.68;9.57;;;6.10;99.90;;;;;;5076550;28;20206;-47
2021/10/14 01:41:36;;;;;;;12.02;9.18;;;6.10;99.90;;;;;;5081539;28;20257;-54
2021/10/14 01:44:04;;;;;;;15.52;10.20;;;6.20;99.90;;;;;;5081582;28;20505;-47
2021/10/14 01:46:31;;;;;;;13.75;9.77;;;6.20;99.90;;;;;;5082068;28;20203;-49
2021/10/14 01:48:58;;;;;;;16.80;9.82;;;6.20;99.90;;;;;;5078308;28;20261;-47
2021/10/14 01:51:25;;;;;;;13.23;9.02;;;6.00;99.90;;;;;;5077074;28;20455;-48
2021/10/14 01:53:53;;;;;;;13.25;9.30;;;6.10;99.90;;;;;;5074455;28;20245;-47
2021/10/14 01:56:20;;;;;;;15.65;10.48;;;6.10;99.90;;;;;;5068943;28;20445;-47
2021/10/14 01:58:47;;;;;;;14.57;10.23;;;6.10;99.90;;;;;;5074180;28;20244;-47
2021/10/14 02:01:14;;;;;;;13.40;9.48;;;6.10;99.90;;;;;;5081040;28;20276;-49
2021/10/14 02:03:42;;;;;;;11.00;8.52;;;6.10;99.90;;;;;;5081450;28;20570;-52
2021/10/14 02:06:09;;;;;;;11.93;8.65;;;6.00;99.90;;;;;;5081947;28;20217;-50
2021/10/14 02:08:36;;;;;;;9.27;7.30;;;5.90;99.90;;;;;;5077593;28;20222;-50
2021/10/14 02:11:03;;;;;;;16.60;10.45;;;5.90;99.90;;;;;;5102304;22;20229;-52
2021/10/14 02:13:30;;;;;;;17.15;10.45;;;5.90;99.90;;;;;;5020876;28;20223;-52
2021/10/14 02:15:58;;;;;;;16.70;11.90;;;5.60;99.90;;;;;;5024076;28;20210;-50
2021/10/14 02:18:25;;;;;;;15.82;9.10;;;5.50;99.90;;;;;;5035991;28;20208;-50
2021/10/14 02:20:52;;;;;;;11.70;9.07;;;5.30;99.90;;;;;;5035222;28;20287;-52
2021/10/14 02:23:19;;;;;;;17.50;9.85;;;5.40;99.90;;;;;;5029074;28;20234;-50
2021/10/14 02:25:47;;;;;;;14.77;10.27;;;5.50;99.90;;;;;;5023828;28;20259;-48
2021/10/14 02:28:13;;;;;;;18.58;10.38;;;5.20;99.90;;;;;;5021718;28;20265;-50
2021/10/14 02:30:41;;;;;;;16.45;9.82;;;5.30;99.90;;;;;;5021494;28;20200;-50
2021/10/14 02:33:09;;;;;;;13.75;9.18;;;5.40;99.90;;;;;;5021571;28;20241;-53
2021/10/14 02:35:37;;;;;;;12.52;8.88;;;5.40;99.90;;;;;;5020750;28;20213;-50
2021/10/14 02:38:04;;;;;;;13.52;10.10;;;5.30;99.90;;;;;;5021010;28;20206;-50
2021/10/14 02:40:32;;;;;;;19.92;8.93;;;5.20;99.90;;;;;;5020105;28;20202;-54
2021/10/14 02:42:59;;;;;;;15.57;9.98;;;5.30;99.90;;;;;;5013503;28;20230;-51
2021/10/14 02:45:26;;;;;;;12.82;9.77;;;5.40;99.90;;;;;;5020736;28;20506;-50
2021/10/14 02:47:53;;;;;;;13.75;10.00;;;5.50;99.90;;;;;;5021418;28;20208;-49
2021/10/14 02:50:21;;;;;;;15.18;10.27;;;5.50;99.90;;;;;;5007485;28;20283;-49
2021/10/14 02:52:48;;;;;;;12.10;8.93;;;5.50;99.90;;;;;;5020696;28;20222;-53
2021/10/14 02:55:15;;;;;;;17.67;11.27;;;5.40;99.90;;;;;;5022487;28;20201;-50
2021/10/14 02:57:42;;;;;;;13.70;10.65;;;5.40;99.90;;;;;;5021306;28;20203;-55
2021/10/14 03:00:10;;;;;;;16.00;10.40;;;5.40;99.90;;;;;;5020927;28;20245;-50
2021/10/14 03:02:37;;;;;;;15.48;10.10;;;5.40;99.90;;;;;;5020627;28;20219;-52
2021/10/14 03:05:04;;;;;;;16.83;11.40;;;5.40;99.90;;;;;;5003168;28;20265;-51
2021/10/14 03:07:32;;;;;;;10.23;9.13;;;5.50;99.90;;;;;;5020346;28;20203;-50
2021/10/14 03:10:04;;;;;;;20.75;11.10;;;5.40;99.90;;;;;;5020549;28;20230;-53
2021/10/14 03:12:31;;;;;;;11.10;8.85;;;5.40;99.90;;;;;;5012914;28;21404;-50
2021/10/14 03:14:58;;;;;;;17.98;11.15;;;5.40;99.90;;;;;;5018412;28;20207;-53
2021/10/14 03:17:25;;;;;;;15.90;10.48;;;5.50;99.90;;;;;;5020739;28;20255;-49
2021/10/14 03:19:52;;;;;;;11.48;8.80;;;5.50;99.90;;;;;;5020071;28;20209;-52
2021/10/14 03:22:20;;;;;;;15.88;11.73;;;5.60;99.90;;;;;;5013293;28;20230;-51
2021/10/14 03:24:49;;;;;;;17.35;11.57;;;5.60;99.90;;;;;;5016575;28;20207;-54
2021/10/14 03:27:16;;;;;;;14.52;10.00;;;5.60;99.90;;;;;;5020089;28;20249;-49
2021/10/14 03:29:43;;;;;;;15.75;9.65;;;5.60;99.90;;;;;;5020316;28;20223;-51
2021/10/14 03:32:11;;;;;;;18.88;11.45;;;5.50;99.90;;;;;;5014738;28;20258;-52
2021/10/14 03:34:38;;;;;;;13.90;9.70;;;5.50;99.90;;;;;;5020176;28;20210;-52
2021/10/14 03:37:05;;;;;;;16.75;11.25;;;5.50;99.90;;;;;;5020111;28;20199;-50
2021/10/14 03:39:32;;;;;;;16.17;9.32;;;5.50;99.90;;;;;;5020021;28;20366;-49
2021/10/14 03:42:00;;;;;;;10.90;9.30;;;5.50;99.90;;;;;;5020498;28;20227;-50
2021/10/14 03:44:27;;;;;;;15.18;10.52;;;5.50;99.90;;;;;;5020585;28;20216;-51
2021/10/14 03:46:54;;;;;;;17.63;11.30;;;5.50;99.90;;;;;;5020912;28;20269;-50
2021/10/14 03:49:21;;;;;;;17.15;11.05;;;5.20;99.90;;;;;;5021114;28;20739;-49
2021/10/14 03:51:48;;;;;;;13.32;11.23;;;5.30;99.90;;;;;;5018551;28;20218;-50
2021/10/14 03:54:15;;;;;;;13.40;10.07;;;5.40;99.90;;;;;;5019272;28;20246;-53
2021/10/14 03:56:42;;;;;;;16.80;10.68;;;5.40;99.90;;;;;;5018560;28;20199;-51
2021/10/14 03:59:10;;;;;;;16.65;10.75;;;5.50;99.90;;;;;;5019659;28;20195;-52
2021/10/14 04:01:36;;;;;;;15.48;11.50;;;5.60;99.90;;;;;;5019763;28;20225;-52
2021/10/14 04:04:04;;;;;;;19.08;11.75;;;5.40;99.90;;;;;;5019158;28;20414;-50
2021/10/14 04:06:31;;;;;;;24.85;11.63;;;5.50;99.90;;;;;;5016837;28;20219;-50
2021/10/14 04:08:58;;;;;;;15.35;10.90;;;5.50;99.90;;;;;;5016693;28;20400;-54
2021/10/14 04:11:25;;;;;;;17.95;12.50;;;5.60;99.90;;;;;;5016195;28;20234;-52
2021/10/14 04:13:52;;;;;;;22.92;13.43;;;5.70;99.90;;;;;;5011517;28;20439;-57
2021/10/14 04:16:19;;;;;;;20.42;13.43;;;5.80;99.90;;;;;;5019978;28;20565;-50
2021/10/14 04:18:46;;;;;;;15.55;10.52;;;5.60;99.90;;;;;;5025926;28;20513;-50
2021/10/14 04:21:14;;;;;;;16.25;11.40;;;5.70;99.90;;;;;;5020407;28;20207;-50
2021/10/14 04:23:43;;;;;;;22.00;11.85;;;5.80;99.90;;;;;;5020020;28;20205;-51
2021/10/14 04:26:11;;;;;;;17.58;11.45;;;6.00;99.90;;;;;;5019578;28;20209;-50
2021/10/14 04:28:39;;;;;;;18.52;12.32;;;6.10;99.90;;;;;;5019181;28;20281;-52
2021/10/14 04:31:06;;;;;;;16.20;11.32;;;6.00;99.90;;;;;;5019488;28;20246;-53
2021/10/14 04:33:36;;;;;;;12.18;9.35;;;6.00;99.90;;;;;;5020001;28;20204;-55
2021/10/14 04:36:04;;;;;;;24.20;11.13;;;6.00;99.90;;;;;;5019895;28;20195;-51
2021/10/14 04:38:32;;;;;;;11.27;8.70;;;6.20;99.90;;;;;;5020227;28;20202;-52
2021/10/14 04:40:59;;;;;;;15.65;9.55;;;6.40;99.90;;;;;;5019996;28;20283;-51
2021/10/14 04:43:27;;;;;;;10.60;9.50;;;6.40;99.90;;;;;;5020074;28;20208;-53
2021/10/14 04:45:54;;;;;;;10.88;9.05;;;6.60;99.90;;;;;;5019777;28;20204;-53
2021/10/14 04:48:21;;;;;;;11.35;7.60;;;6.80;99.90;;;;;;5019616;28;20433;-53
2021/10/14 04:50:48;;;;;;;15.77;9.30;;;6.90;99.90;;;;;;5021533;28;20238;-52
2021/10/14 04:53:15;;;;;;;10.52;8.13;;;6.90;99.90;;;;;;5020115;28;20228;-54
2021/10/14 04:55:43;;;;;;;12.27;8.13;;;6.90;99.90;;;;;;5016506;28;20244;-51
2021/10/14 04:58:09;;;;;;;8.60;7.70;;;6.90;99.90;;;;;;5009019;28;20425;-53
2021/10/14 05:00:37;;;;;;;12.38;9.20;;;6.80;99.90;;;;;;5003661;28;20205;-51
2021/10/14 05:03:04;;;;;;;17.83;9.30;;;6.90;99.90;;;;;;5011858;28;20262;-54
2021/10/14 05:05:37;;;;;;;14.40;9.55;;;7.00;99.90;;;;;;5013224;28;20205;-53
2021/10/14 05:08:06;;;;;;;10.73;7.40;;;7.00;99.90;;;;;;5017687;28;20207;-51
2021/10/14 05:10:34;;;;;;;13.43;7.53;;;7.10;99.90;;;;;;5018619;28;20550;-52
2021/10/14 05:13:01;;;;;;;13.30;7.97;;;7.00;99.90;;;;;;5008970;28;20229;-55
2021/10/14 05:15:28;;;;;;;10.65;7.25;;;6.60;99.90;;;;;;5004221;28;20418;-52
2021/10/14 05:17:55;;;;;;;11.10;8.30;;;6.70;99.90;;;;;;5007034;28;20208;-54
2021/10/14 05:20:23;;;;;;;12.23;8.73;;;6.80;99.90;;;;;;5007270;28;20212;-49
2021/10/14 05:22:51;;;;;;;13.63;7.20;;;6.70;99.90;;;;;;5007956;28;20224;-51
2021/10/14 05:25:18;;;;;;;12.52;6.93;;;6.70;99.90;;;;;;5008512;28;20534;-49
2021/10/14 05:27:45;;;;;;;11.10;7.65;;;7.00;99.90;;;;;;5005356;28;20389;-49
2021/10/14 05:30:13;;;;;;;15.68;9.10;;;6.80;99.90;;;;;;5013302;28;20229;-51
2021/10/14 05:32:40;;;;;;;13.75;8.95;;;6.90;99.90;;;;;;5012558;28;20218;-49
2021/10/14 05:35:27;;;;;;;16.05;8.63;;;7.10;99.90;;;;;;5017665;28;20219;-49
2021/10/14 05:37:54;;;;;;;11.95;9.35;;;6.90;99.90;;;;;;5022552;28;20449;-51
2021/10/14 05:40:22;;;;;;;11.73;8.48;;;6.80;99.90;;;;;;5022939;28;20267;-52
2021/10/14 05:42:49;;;;;;;15.63;9.95;;;7.00;99.90;;;;;;5024557;28;20227;-51
2021/10/14 05:45:16;;;;;;;13.23;11.27;;;7.00;99.90;;;;;;5022069;28;20404;-49
2021/10/14 05:47:43;;;;;;;15.98;11.27;;;6.90;99.90;;;;;;5021848;28;20201;-54
2021/10/14 05:50:10;;;;;;;10.23;8.48;;;6.90;99.90;;;;;;5021673;28;20275;-50
2021/10/14 05:52:38;;;;;;;11.63;8.40;;;6.90;99.90;;;;;;5022508;28;20223;-52
2021/10/14 05:55:05;;;;;;;11.88;7.40;;;7.10;99.90;;;;;;5021800;28;20199;-52
2021/10/14 05:57:32;;;;;;;15.27;12.25;;;7.30;99.90;;;;;;5021713;28;20193;-50
2021/10/14 05:59:59;;;;;;;15.93;12.07;;;7.20;99.90;;;;;;5021733;28;20201;-50
2021/10/14 06:02:26;;;;;;;14.85;10.32;;;7.20;99.90;;;;;;5023219;28;20451;-50
2021/10/14 06:04:53;;;;;;;16.38;11.40;;;7.20;99.90;;;;;;5021732;28;20458;-51
2021/10/14 06:07:21;;;;;;;13.70;9.43;;;7.30;99.90;;;;;;5016125;28;20255;-53
2021/10/14 06:09:48;;;;;;;15.80;10.35;;;7.20;99.90;;;;;;5021378;28;20227;-52
2021/10/14 06:12:16;;;;;;;13.82;9.15;;;7.30;99.90;;;;;;5024504;28;20232;-52
2021/10/14 06:14:43;;;;;;;10.63;7.82;;;7.40;99.90;;;;;;5017663;28;20502;-50
2021/10/14 06:17:10;;;;;;;12.30;7.65;;;7.40;99.90;;;;;;5021391;28;20255;-51
2021/10/14 06:19:38;;;;;;;10.10;7.93;;;7.60;99.90;;;;;;5021403;28;20200;-51
2021/10/14 06:22:05;;;;;;;12.00;8.73;;;7.70;99.90;;;;;;5021056;28;20604;-52
2021/10/14 06:24:32;;;;;;;11.25;8.05;;;7.60;99.90;;;;;;5021751;28;20553;-50
2021/10/14 06:26:59;;;;;;;14.90;9.70;;;7.70;99.90;;;;;;5020881;28;20239;-52
2021/10/14 06:29:26;;;;;;;12.68;9.77;;;8.00;99.90;;;;;;5020854;28;20225;-49
2021/10/14 06:31:53;;;;;;;16.42;11.45;;;7.90;99.90;;;;;;5019470;28;20385;-52
2021/10/14 06:34:20;;;;;;;10.82;9.73;;;7.90;99.90;;;;;;5011453;28;20239;-50
2021/10/14 06:36:48;;;;;;;14.27;11.20;;;7.90;99.90;;;;;;5029027;28;20236;-51
2021/10/14 06:39:15;;;;;;;13.55;9.55;;;8.20;99.90;;;;;;5020669;28;20200;-50
2021/10/14 06:41:43;;;;;;;13.98;7.40;;;8.10;99.90;;;;;;5021123;28;20225;-52
2021/10/14 06:44:11;;;;;;;13.88;6.88;;;8.30;99.90;;;;;;5019539;28;20247;-50
2021/10/14 06:46:38;;;;;;;12.13;7.75;;;8.60;99.90;;;;;;5021104;28;20201;-50
2021/10/14 06:49:06;;;;;;;10.35;7.65;;;8.50;99.90;;;;;;5009440;28;20547;-51
2021/10/14 06:51:34;;;;;;;7.93;7.13;;;8.40;99.90;;;;;;5021034;28;20543;-56
2021/10/14 06:54:01;;;;;;;12.60;7.70;;;8.70;99.90;;;;;;5020550;28;20435;-54
2021/10/14 06:56:28;;;;;;;11.77;9.00;;;8.70;99.90;;;;;;5006387;28;20196;-54
2021/10/14 06:58:55;;;;;;;7.22;6.53;;;8.90;99.90;;;;;;5011029;28;20197;-55
2021/10/14 07:01:22;;;;;;;9.10;7.65;;;9.10;99.90;;;;;;5021795;28;20252;-55
2021/10/14 07:03:50;;;;;;;9.07;7.18;;;9.40;99.90;;;;;;5020157;28;20212;-50
2021/10/14 07:06:17;;;;;;;11.27;7.05;;;9.30;99.90;;;;;;5000601;28;20396;-55
2021/10/14 07:08:45;;;;;;;8.10;6.18;;;9.20;99.90;;;;;;5021601;28;20197;-50
2021/10/14 07:11:12;;;;;;;10.07;6.45;;;9.40;99.90;;;;;;5018771;28;20243;-53
2021/10/14 07:13:44;;;;;;;7.20;6.20;;;9.50;99.90;;;;;;5015918;28;20232;-50
2021/10/14 07:16:11;;;;;;;11.88;7.43;;;9.70;99.90;;;;;;5019932;28;20213;-52
2021/10/14 07:18:39;;;;;;;11.70;8.20;;;9.70;99.90;;;;;;5020375;28;20196;-52
2021/10/14 07:21:09;;;;;;;8.55;7.55;;;9.70;99.90;;;;;;5003387;28;20209;-51
2021/10/14 07:23:36;;;;;;;13.10;7.68;;;9.80;99.90;;;;;;5020399;28;20201;-51
2021/10/14 07:26:03;;;;;;;9.60;7.20;;;9.90;99.90;;;;;;5020472;28;20197;-55
2021/10/14 07:28:31;;;;;;;10.38;7.63;;;10.10;99.90;;;;;;5020771;28;20201;-56
2021/10/14 07:30:58;;;;;;;11.52;9.48;;;10.00;99.90;;;;;;5022534;28;20647;-54
2021/10/14 07:33:25;;;;;;;16.08;8.43;;;10.00;99.90;;;;;;5020367;28;20221;-51
2021/10/14 07:35:52;;;;;;;11.90;7.05;;;9.70;99.90;;;;;;5020480;28;20500;-52
2021/10/14 07:38:19;;;;;;;12.52;7.57;;;9.90;99.90;;;;;;5018683;28;20202;-54
2021/10/14 07:40:46;;;;;;;11.00;7.47;;;10.10;99.90;;;;;;5015817;28;20201;-49
2021/10/14 07:43:14;;;;;;;10.30;6.18;;;10.20;99.90;;;;;;5019414;28;20390;-53
2021/10/14 07:45:44;;;;;;;9.82;5.60;;;10.50;99.90;;;;;;5019819;28;20201;-51
2021/10/14 07:48:12;;;;;;;10.85;6.97;;;10.70;99.90;;;;;;5017683;28;20214;-53
2021/10/14 07:50:40;;;;;;;15.07;8.23;;;10.50;99.90;;;;;;5019994;28;20431;-53
2021/10/14 07:53:14;;;;;;;10.70;6.28;;;10.60;99.90;;;;;;5017259;28;20223;-54
2021/10/14 07:55:43;;;;;;;7.22;6.05;;;11.00;99.90;;;;;;5019301;28;20197;-49
2021/10/14 07:58:11;;;;;;;13.55;8.20;;;11.30;99.90;;;;;;5020019;28;20272;-53
2021/10/14 08:00:39;;;;;;;11.38;7.07;;;11.60;99.90;;;;;;5019569;28;20218;-53
2021/10/14 08:03:07;;;;;;;27.83;14.70;;;11.70;99.90;;;;;;5017706;28;20237;-53
2021/10/14 08:05:35;;;;;;;25.08;11.48;;;11.50;99.90;;;;;;5017116;28;20239;-50
2021/10/14 08:08:04;;;;;;;35.97;14.93;;;11.50;99.90;;;;;;5017438;28;20211;-47
2021/10/14 08:10:32;;;;;;;31.27;13.85;;;11.50;99.90;;;;;;5017862;28;20223;-55
2021/10/14 08:13:00;;;;;;;26.20;12.82;;;11.70;99.90;;;;;;5077484;22;20281;-47
2021/10/14 08:15:27;;;;;;;7.05;6.45;;;12.10;99.90;;;;;;5074543;28;20205;-49
2021/10/14 08:17:55;;;;;;;9.00;7.30;;;12.30;99.90;;;;;;5079113;28;20239;-44
2021/10/14 08:20:22;;;;;;;11.25;8.60;;;12.30;99.90;;;;;;5074517;28;20253;-48
2021/10/14 08:22:50;;;;;;;20.20;12.00;;;12.30;99.90;;;;;;5069048;28;20267;-45
2021/10/14 08:25:17;;;;;;;9.88;6.28;;;12.40;99.90;;;;;;5056962;28;20221;-42
2021/10/14 08:27:45;;;;;;;9.80;5.75;;;12.00;99.90;;;;;;5057439;28;20207;-47
2021/10/14 08:30:14;;;;;;;9.10;6.47;;;11.90;99.90;;;;;;5059575;28;20277;-44
2021/10/14 08:32:46;;;;;;;11.35;6.50;;;11.90;99.90;;;;;;5058498;28;20224;-44
2021/10/14 08:35:15;;;;;;;9.27;6.72;;;11.90;99.90;;;;;;5056381;28;20479;-45
2021/10/14 08:37:42;;;;;;;8.50;6.78;;;11.90;99.90;;;;;;5056745;28;20206;-47
2021/10/14 08:40:11;;;;;;;6.28;5.38;;;11.80;99.90;;;;;;5058132;28;20213;-44
2021/10/14 08:42:40;;;;;;;5.75;4.95;;;11.80;99.90;;;;;;5060127;28;20222;-47
2021/10/14 08:45:10;;;;;;;5.90;4.90;;;11.90;99.90;;;;;;5057530;28;20204;-46
2021/10/14 08:47:38;;;;;;;6.78;6.10;;;12.10;99.90;;;;;;5060485;28;20202;-44
2021/10/14 08:50:08;;;;;;;8.13;6.72;;;12.10;99.90;;;;;;5062170;28;20276;-45
2021/10/14 08:52:36;;;;;;;8.20;6.55;;;12.00;99.90;;;;;;5063258;28;20222;-47
2021/10/14 08:55:03;;;;;;;8.40;6.68;;;12.10;99.90;;;;;;5062868;28;20198;-44
2021/10/14 08:57:30;;;;;;;15.88;8.43;;;12.50;99.90;;;;;;5061751;28;20201;-47
2021/10/14 08:59:57;;;;;;;10.80;5.88;;;12.60;99.90;;;;;;5060935;28;20210;-47
2021/10/14 09:02:24;;;;;;;6.80;6.10;;;12.60;99.90;;;;;;5058253;28;20280;-47
2021/10/14 09:04:53;;;;;;;8.00;7.13;;;12.70;99.90;;;;;;5062005;28;20233;-47
2021/10/14 09:07:22;;;;;;;6.93;6.10;;;12.80;99.90;;;;;;5059375;28;20241;-48
2021/10/14 09:09:50;;;;;;;6.80;6.10;;;12.90;99.90;;;;;;5058160;28;20265;-44
2021/10/14 09:12:19;;;;;;;7.65;6.88;;;12.80;99.90;;;;;;5060580;28;20229;-44
2021/10/14 09:15:07;;;;;;;10.85;6.55;;;13.00;99.90;;;;;;5061908;28;20496;-47
2021/10/14 09:17:37;;;;;;;9.50;6.70;;;13.00;99.90;;;;;;5059031;28;20202;-48
2021/10/14 09:20:27;;;;;;;8.55;7.03;;;13.00;99.90;;;;;;5059601;28;20725;-51
2021/10/14 09:23:06;;;;;;;9.70;7.07;;;13.50;99.90;;;;;;5059365;28;20269;-41
2021/10/14 09:25:41;;;;;;;7.82;6.68;;;13.40;99.90;;;;;;5056357;28;20203;-44
2021/10/14 09:28:09;;;;;;;7.55;6.78;;;13.30;99.90;;;;;;5062084;28;20221;-49
2021/10/14 09:30:51;;;;;;;7.90;6.50;;;13.20;99.90;;;;;;5054518;28;20227;-51
2021/10/14 09:33:29;;;;;;;11.63;7.15;;;13.20;99.90;;;;;;5057292;28;20226;-45
2021/10/14 09:36:18;;;;;;;9.60;6.40;;;13.20;99.90;;;;;;5059103;28;20210;-48
2021/10/14 09:38:49;;;;;;;12.88;8.07;;;13.50;99.90;;;;;;5059579;28;20206;-50
2021/10/14 09:41:20;;;;;;;8.73;7.00;;;13.80;99.90;;;;;;5061212;28;20494;-45
2021/10/14 09:43:50;;;;;;;10.13;6.35;;;14.30;99.90;;;;;;5059124;28;20290;-44
2021/10/14 09:46:37;;;;;;;6.70;6.05;;;14.20;99.90;;;;;;5061732;28;20371;-48
2021/10/14 09:49:14;;;;;;;8.07;6.72;;;14.10;99.90;;;;;;5061573;28;20207;-44
2021/10/14 09:51:43;;;;;;;9.20;7.53;;;14.30;99.90;;;;;;5056713;28;20238;-45
2021/10/14 09:54:11;;;;;;;7.85;6.20;;;14.30;99.90;;;;;;5056943;28;20207;-48
2021/10/14 09:56:38;;;;;;;8.60;7.38;;;14.40;99.90;;;;;;5063233;28;20514;-45
2021/10/14 09:59:06;;;;;;;9.18;7.28;;;14.60;99.90;;;;;;5047848;28;20202;-50
2021/10/14 10:01:37;;;;;;;10.13;7.35;;;14.60;99.90;;;;;;5062898;28;20225;-45
2021/10/14 10:04:04;;;;;;;10.00;7.55;;;14.60;99.90;;;;;;5064816;28;20237;-45
2021/10/14 10:06:34;;;;;;;10.95;7.75;;;14.40;99.90;;;;;;5058366;28;20499;-44
2021/10/14 10:09:23;;;;;;;6.90;6.20;;;14.60;99.90;;;;;;5053114;28;20215;-50
2021/10/14 10:11:54;;;;;;;8.50;6.50;;;14.80;99.90;;;;;;5051852;28;20363;-48
2021/10/14 10:14:23;;;;;;;7.70;6.90;;;14.60;99.90;;;;;;5059414;28;20203;-43
2021/10/14 10:16:58;;;;;;;10.73;8.88;;;14.80;99.90;;;;;;5061721;28;20203;-44
2021/10/14 10:19:41;;;;;;;9.65;7.32;;;15.20;99.90;;;;;;5061681;28;20529;-48
2021/10/14 10:22:10;;;;;;;6.70;6.05;;;15.00;99.90;;;;;;5060516;28;20526;-46
2021/10/14 10:24:38;;;;;;;8.35;7.55;;;15.00;99.90;;;;;;5061623;28;20384;-44
2021/10/14 10:27:07;;;;;;;10.32;6.55;;;15.10;99.90;;;;;;5060573;28;20203;-48
2021/10/14 10:29:37;;;;;;;13.50;6.72;;;14.80;99.90;;;;;;5060913;28;20231;-46
2021/10/14 10:32:05;;;;;;;7.35;6.65;;;15.00;99.90;;;;;;5058544;28;20215;-47
2021/10/14 10:37:31;;;;;;;7.47;6.55;;;15.20;99.90;;;;;;5060625;28;20199;-47
2021/10/14 10:40:21;;;;;;;6.28;5.65;;;15.40;99.90;;;;;;5060369;28;20270;-44
2021/10/14 10:43:04;;;;;;;10.60;6.53;;;15.50;99.90;;;;;;5053666;28;20219;-48
2021/10/14 10:45:53;;;;;;;9.75;6.00;;;15.20;99.90;;;;;;5054039;28;20594;-47
2021/10/14 10:48:33;;;;;;;6.90;5.28;;;15.30;99.90;;;;;;5057451;28;20207;-51
2021/10/14 10:51:01;;;;;;;6.47;5.88;;;15.00;99.90;;;;;;5064803;28;20219;-45
2021/10/14 10:53:45;;;;;;;6.40;5.85;;;14.60;99.90;;;;;;5057687;28;20215;-46
2021/10/14 10:56:38;;;;;;;6.15;5.53;;;14.30;99.90;;;;;;5059062;28;20524;-50
2021/10/14 10:59:06;;;;;;;6.57;5.95;;;14.30;99.90;;;;;;5053351;28;20196;-45
2021/10/14 11:01:34;;;;;;;5.43;4.93;;;14.50;99.90;;;;;;5059727;28;20237;-47
2021/10/14 11:04:04;;;;;;;4.70;4.30;;;14.90;99.90;;;;;;5057072;28;20253;-46
2021/10/14 11:06:34;;;;;;;9.60;5.68;;;15.20;99.90;;;;;;5059270;28;20200;-45
2021/10/14 11:09:05;;;;;;;6.70;5.68;;;15.30;99.90;;;;;;5059280;28;20565;-49
2021/10/14 11:11:34;;;;;;;6.32;5.82;;;15.10;99.90;;;;;;5037529;28;20418;-44
2021/10/14 11:14:02;;;;;;;8.40;5.00;;;15.20;99.90;;;;;;5057133;28;20200;-50
2021/10/14 11:16:31;;;;;;;6.65;6.03;;;15.20;99.90;;;;;;5055847;28;20376;-47
2021/10/14 11:19:00;;;;;;;8.07;6.22;;;15.10;99.90;;;;;;5056741;28;20302;-51
2021/10/14 11:21:36;;;;;;;5.28;4.78;;;15.10;99.90;;;;;;5055824;28;20210;-51
2021/10/14 11:24:05;;;;;;;5.80;5.20;;;14.80;99.90;;;;;;5059928;28;20206;-46
2021/10/14 11:26:44;;;;;;;7.32;6.25;;;14.40;99.90;;;;;;5055082;28;20483;-43
2021/10/14 11:29:18;;;;;;;5.35;4.85;;;14.50;99.90;;;;;;5059583;28;20249;-48
2021/10/14 11:32:05;;;;;;;5.35;4.75;;;14.80;99.90;;;;;;5054545;28;20227;-44
2021/10/14 11:34:34;;;;;;;6.82;4.70;;;14.80;99.90;;;;;;5060026;28;20195;-46
2021/10/14 11:37:10;;;;;;;6.65;4.85;;;15.00;99.90;;;;;;5059756;28;20203;-48
2021/10/14 11:39:40;;;;;;;5.90;4.57;;;14.80;99.90;;;;;;5055711;28;20199;-45
2021/10/14 11:42:11;;;;;;;5.93;4.80;;;14.60;99.90;;;;;;5059053;28;20431;-45
2021/10/14 11:44:41;;;;;;;6.30;5.82;;;14.40;99.90;;;;;;5060022;28;20253;-48
2021/10/14 11:47:14;;;;;;;8.77;4.90;;;14.50;99.90;;;;;;5053621;28;20518;-45
2021/10/14 11:49:42;;;;;;;5.78;4.45;;;14.50;99.90;;;;;;5042361;28;20206;-46
2021/10/14 11:52:12;;;;;;;5.28;4.88;;;14.50;99.90;;;;;;5062500;28;20276;-44
2021/10/14 11:54:41;;;;;;;6.03;4.63;;;14.10;99.90;;;;;;5053967;28;20436;-44
2021/10/14 11:57:09;;;;;;;5.80;5.30;;;14.00;99.90;;;;;;5059617;28;20565;-49
2021/10/14 11:59:38;;;;;;;4.82;4.43;;;14.10;99.90;;;;;;5059537;28;20435;-44
2021/10/14 12:02:18;;;;;;;5.43;5.03;;;14.00;99.90;;;;;;5058930;28;20230;-48
2021/10/14 12:04:53;;;;;;;5.40;4.90;;;13.90;99.90;;;;;;5058032;28;20199;-45
2021/10/14 12:07:26;;;;;;;5.50;4.53;;;13.80;99.90;;;;;;5051892;28;20198;-47
2021/10/14 12:09:55;;;;;;;5.00;4.60;;;13.80;99.90;;;;;;5059767;28;20473;-45
2021/10/14 12:12:24;;;;;;;7.45;5.15;;;13.80;99.90;;;;;;5052587;28;20239;-45
2021/10/14 12:15:12;;;;;;;6.20;5.28;;;13.70;99.90;;;;;;5058320;28;20203;-43
2021/10/14 12:17:44;;;;;;;5.70;5.13;;;13.50;99.90;;;;;;5059721;28;20207;-43
2021/10/14 12:20:21;;;;;;;10.88;5.28;;;13.30;99.90;;;;;;5059202;28;20203;-47
2021/10/14 12:22:54;;;;;;;4.97;4.55;;;13.30;99.90;;;;;;5055358;28;20218;-47
2021/10/14 12:25:37;;;;;;;5.93;5.18;;;13.20;99.90;;;;;;5061258;28;20195;-43
2021/10/14 12:28:20;;;;;;;4.70;4.30;;;13.20;99.90;;;;;;5064168;28;20474;-45
2021/10/14 12:30:47;;;;;;;6.10;5.60;;;13.00;99.90;;;;;;5057885;28;20421;-44
2021/10/14 12:33:18;;;;;;;5.30;4.78;;;12.70;99.90;;;;;;5063180;28;20296;-45
2021/10/14 12:35:55;;;;;;;13.98;6.15;;;12.70;99.90;;;;;;5060423;28;20208;-44
2021/10/14 12:38:32;;;;;;;9.80;5.80;;;12.70;99.90;;;;;;5061894;28;20571;-43
2021/10/14 12:41:03;;;;;;;6.95;5.90;;;12.60;99.90;;;;;;5058650;28;20509;-44
2021/10/14 12:43:36;;;;;;;5.13;4.63;;;12.70;99.90;;;;;;5053914;28;20223;-44
2021/10/14 12:46:33;;;;;;;6.20;5.65;;;12.60;99.90;;;;;;5061625;28;20207;-49
2021/10/14 12:49:23;;;;;;;11.55;5.78;;;12.70;99.90;;;;;;5062786;28;20270;-47
2021/10/14 12:51:52;;;;;;;6.32;5.75;;;12.80;99.90;;;;;;5062890;28;20444;-45
2021/10/14 12:54:21;;;;;;;11.20;7.10;;;13.00;99.90;;;;;;5069234;28;20214;-49
2021/10/14 12:56:56;;;;;;;5.85;5.10;;;13.20;99.90;;;;;;5057813;28;20370;-49